createdAt,value
2022-09-03T00:00:58.797Z,50.86
2022-09-03T00:01:58.827Z,50.35
2022-09-03T00:02:58.885Z,50.86
2022-09-03T00:03:58.870Z,51.26
2022-09-03T00:04:58.791Z,51.39
2022-09-03T00:05:58.739Z,51.99
2022-09-03T00:06:58.736Z,50.68
2022-09-03T00:07:59.192Z,50.38
2022-09-03T00:08:58.711Z,50.28
2022-09-03T00:09:58.737Z,50.78
2022-09-03T00:10:58.689Z,50.38
2022-09-03T00:11:58.656Z,50.38
2022-09-03T00:12:58.671Z,50.58
2022-09-03T00:13:58.659Z,50.56
2022-09-03T00:14:58.650Z,50.86
2022-09-03T00:15:58.693Z,50.46
2022-09-03T00:16:58.594Z,50.86
2022-09-03T00:17:58.576Z,51.26
2022-09-03T00:18:58.599Z,50.78
2022-09-03T00:19:58.578Z,50.58
2022-09-03T00:20:58.547Z,50.89
2022-09-03T00:21:58.581Z,50.78
2022-09-03T00:22:58.600Z,51.29
2022-09-03T00:23:58.496Z,50.18
2022-09-03T00:24:58.514Z,50.38
2022-09-03T00:25:58.480Z,50.28
2022-09-03T00:26:58.479Z,50.58
2022-09-03T00:27:58.467Z,50.89
2022-09-03T00:28:58.878Z,50.98
2022-09-03T00:29:58.828Z,50.78
2022-09-03T00:30:58.483Z,50.68
2022-09-03T00:31:58.430Z,50.38
2022-09-03T00:32:58.412Z,50.68
2022-09-03T00:33:58.381Z,49.88
2022-09-03T00:34:58.368Z,50.18
2022-09-03T00:35:58.369Z,50.28
2022-09-03T00:36:58.382Z,50.58
2022-09-03T00:37:58.378Z,50.08
2022-09-03T00:38:58.335Z,50.48
2022-09-03T00:39:58.355Z,50.18
2022-09-03T00:40:58.405Z,50.28
2022-09-03T00:41:58.302Z,50.58
2022-09-03T00:42:58.280Z,49.88
2022-09-03T00:43:58.268Z,50.28
2022-09-03T00:44:58.238Z,50.08
2022-09-03T00:45:58.287Z,50.68
2022-09-03T00:46:58.217Z,50.48
2022-09-03T00:47:58.194Z,50.58
2022-09-03T00:48:58.197Z,50.18
2022-09-03T00:49:58.209Z,50.48
2022-09-03T00:50:58.179Z,50.89
2022-09-03T00:51:58.156Z,51.29
2022-09-03T00:52:58.144Z,51.09
2022-09-03T00:53:58.105Z,51.29
2022-09-03T00:54:58.126Z,50.98
2022-09-03T00:55:58.118Z,51.09
2022-09-03T00:56:58.074Z,51.21
2022-09-03T00:57:58.063Z,51.41
2022-09-03T00:58:58.067Z,51.51
2022-09-03T00:59:58.050Z,51.01
2022-09-03T01:00:58.046Z,51.11
2022-09-03T01:01:58.106Z,51.31
2022-09-03T01:02:57.994Z,51.41
2022-09-03T01:03:57.987Z,51.71
2022-09-03T01:04:57.985Z,52.01
2022-09-03T01:06:01.508Z,52.31
2022-09-03T01:06:57.952Z,51.81
2022-09-03T01:07:57.934Z,52.31
2022-09-03T01:08:57.946Z,52.11
2022-09-03T01:09:57.942Z,52.22
2022-09-03T01:10:57.897Z,52.31
2022-09-03T01:11:57.907Z,51.71
2022-09-03T01:12:57.920Z,52.42
2022-09-03T01:13:57.877Z,51.81
2022-09-03T01:14:57.841Z,52.22
2022-09-03T01:15:57.971Z,52.51
2022-09-03T01:16:57.814Z,52.31
2022-09-03T01:17:57.816Z,52.51
2022-09-03T01:18:57.784Z,52.01
2022-09-03T01:19:57.851Z,52.72
2022-09-03T01:21:05.364Z,53.05
2022-09-03T01:21:57.761Z,52.84
2022-09-03T01:22:57.758Z,53.14
2022-09-03T01:23:57.734Z,53.05
2022-09-03T01:24:57.731Z,53.25
2022-09-03T01:25:57.743Z,52.74
2022-09-03T01:26:57.702Z,52.84
2022-09-03T01:27:57.679Z,53.25
2022-09-03T01:28:57.658Z,53.45
2022-09-03T01:29:57.651Z,53.85
2022-09-03T01:30:57.707Z,53.55
2022-09-03T01:31:57.644Z,53.75
2022-09-03T01:32:57.609Z,53.25
2022-09-03T01:33:57.589Z,53.55
2022-09-03T01:34:57.611Z,53.95
2022-09-03T01:35:57.607Z,54.05
2022-09-03T01:36:57.581Z,53.95
2022-09-03T01:37:57.550Z,53.95
2022-09-03T01:38:57.529Z,53.98
2022-09-03T01:39:57.561Z,53.75
2022-09-03T01:40:57.528Z,54.25
2022-09-03T01:41:57.494Z,53.65
2022-09-03T01:42:57.480Z,54.15
2022-09-03T01:43:57.469Z,53.85
2022-09-03T01:44:57.482Z,53.95
2022-09-03T01:45:57.527Z,54.25
2022-09-03T01:46:57.440Z,54.18
2022-09-03T01:47:57.418Z,54.08
2022-09-03T01:48:57.410Z,53.67
2022-09-03T01:49:57.388Z,53.78
2022-09-03T01:50:57.420Z,53.88
2022-09-03T01:51:57.358Z,54.38
2022-09-03T01:52:57.467Z,54.48
2022-09-03T01:53:57.335Z,54.18
2022-09-03T01:54:57.327Z,54.68
2022-09-03T01:55:57.324Z,54.68
2022-09-03T01:56:57.328Z,55.29
2022-09-03T01:57:57.283Z,54.58
2022-09-03T01:58:57.315Z,54.68
2022-09-03T01:59:57.258Z,54.68
2022-09-03T02:00:57.272Z,55.11
2022-09-03T02:01:57.318Z,54.88
2022-09-03T02:02:57.237Z,54.38
2022-09-03T02:03:57.208Z,55.19
2022-09-03T02:04:57.211Z,54.38
2022-09-03T02:05:57.220Z,54.79
2022-09-03T02:06:57.157Z,54.61
2022-09-03T02:07:57.139Z,54.41
2022-09-03T02:08:57.177Z,54.71
2022-09-03T02:09:57.137Z,54.10
2022-09-03T02:10:57.128Z,54.10
2022-09-03T02:11:57.111Z,54.41
2022-09-03T02:12:57.087Z,54.61
2022-09-03T02:13:57.090Z,54.50
2022-09-03T02:14:57.080Z,54.50
2022-09-03T02:15:57.209Z,54.50
2022-09-03T02:16:57.058Z,54.81
2022-09-03T02:17:57.035Z,54.71
2022-09-03T02:18:57.017Z,55.11
2022-09-03T02:19:57.017Z,55.41
2022-09-03T02:20:57.010Z,55.51
2022-09-03T02:21:56.969Z,55.31
2022-09-03T02:22:56.982Z,55.71
2022-09-03T02:23:56.959Z,55.21
2022-09-03T02:24:56.937Z,55.21
2022-09-03T02:25:56.955Z,55.11
2022-09-03T02:26:56.912Z,55.11
2022-09-03T02:27:56.909Z,55.31
2022-09-03T02:28:56.914Z,55.21
2022-09-03T02:29:56.871Z,55.21
2022-09-03T02:30:57.010Z,55.62
2022-09-03T02:31:56.887Z,55.62
2022-09-03T02:32:56.846Z,55.51
2022-09-03T02:33:56.847Z,55.62
2022-09-03T02:34:56.811Z,55.82
2022-09-03T02:35:56.805Z,55.51
2022-09-03T02:36:56.799Z,55.82
2022-09-03T02:37:56.784Z,56.12
2022-09-03T02:38:56.769Z,55.71
2022-09-03T02:39:56.837Z,55.71
2022-09-03T02:40:56.768Z,55.44
2022-09-03T02:41:56.720Z,55.34
2022-09-03T02:42:56.705Z,55.74
2022-09-03T02:43:56.719Z,55.54
2022-09-03T02:44:56.685Z,55.64
2022-09-03T02:45:56.723Z,55.94
2022-09-03T02:46:56.655Z,55.84
2022-09-03T02:47:56.644Z,55.84
2022-09-03T02:48:56.627Z,55.64
2022-09-03T02:49:56.621Z,55.84
2022-09-03T02:50:56.627Z,55.34
2022-09-03T02:51:56.595Z,55.74
2022-09-03T02:52:56.588Z,55.94
2022-09-03T02:53:56.557Z,55.64
2022-09-03T02:54:56.564Z,55.94
2022-09-03T02:55:56.559Z,56.35
2022-09-03T02:56:56.558Z,56.04
2022-09-03T02:57:56.528Z,56.15
2022-09-03T02:58:56.508Z,56.15
2022-09-03T02:59:56.497Z,55.94
2022-09-03T03:00:56.591Z,56.15
2022-09-03T03:01:56.480Z,56.65
2022-09-03T03:02:56.466Z,55.84
2022-09-03T03:03:56.447Z,56.04
2022-09-03T03:04:56.456Z,56.15
2022-09-03T03:05:56.440Z,56.35
2022-09-03T03:06:56.397Z,56.45
2022-09-03T03:07:56.413Z,56.35
2022-09-03T03:08:56.371Z,56.35
2022-09-03T03:09:56.367Z,56.15
2022-09-03T03:10:56.403Z,56.55
2022-09-03T03:11:56.326Z,56.65
2022-09-03T03:12:56.324Z,56.15
2022-09-03T03:13:56.314Z,55.94
2022-09-03T03:14:56.316Z,55.94
2022-09-03T03:15:56.294Z,56.35
2022-09-03T03:16:56.298Z,56.55
2022-09-03T03:17:56.254Z,56.15
2022-09-03T03:18:56.287Z,56.85
2022-09-03T03:19:56.248Z,56.65
2022-09-03T03:20:56.223Z,56.45
2022-09-03T03:21:56.221Z,55.94
2022-09-03T03:22:56.234Z,55.64
2022-09-03T03:23:56.172Z,56.04
2022-09-03T03:24:56.181Z,56.04
2022-09-03T03:25:56.174Z,56.75
2022-09-03T03:26:56.177Z,56.65
2022-09-03T03:27:56.131Z,56.95
2022-09-03T03:28:56.150Z,56.75
2022-09-03T03:29:56.115Z,56.95
2022-09-03T03:30:56.138Z,56.45
2022-09-03T03:31:56.092Z,56.77
2022-09-03T03:32:56.143Z,56.98
2022-09-03T03:33:56.069Z,56.77
2022-09-03T03:34:56.055Z,56.37
2022-09-03T03:35:56.029Z,56.88
2022-09-03T03:36:56.051Z,56.98
2022-09-03T03:37:56.001Z,56.88
2022-09-03T03:38:55.998Z,56.77
2022-09-03T03:39:56.067Z,57.28
2022-09-03T03:40:55.976Z,56.27
2022-09-03T03:41:55.956Z,56.48
2022-09-03T03:42:55.974Z,57.08
2022-09-03T03:43:55.946Z,56.88
2022-09-03T03:44:55.911Z,56.98
2022-09-03T03:45:55.945Z,56.98
2022-09-03T03:46:55.911Z,57.28
2022-09-03T03:47:55.894Z,57.58
2022-09-03T03:48:55.884Z,57.58
2022-09-03T03:49:55.863Z,57.68
2022-09-03T03:50:55.842Z,57.28
2022-09-03T03:51:55.840Z,57.38
2022-09-03T03:52:55.842Z,57.61
2022-09-03T03:53:55.802Z,57.81
2022-09-03T03:54:55.797Z,58.01
2022-09-03T03:55:55.784Z,57.81
2022-09-03T03:56:55.974Z,58.12
2022-09-03T03:57:55.784Z,58.12
2022-09-03T03:58:55.730Z,58.32
2022-09-03T03:59:55.729Z,58.32
2022-09-03T04:00:55.787Z,58.22
2022-09-03T04:01:55.743Z,58.22
2022-09-03T04:02:55.715Z,58.32
2022-09-03T04:03:55.700Z,58.32
2022-09-03T04:04:55.674Z,58.72
2022-09-03T04:05:55.653Z,58.62
2022-09-03T04:06:55.653Z,58.42
2022-09-03T04:07:55.661Z,58.82
2022-09-03T04:08:55.599Z,59.02
2022-09-03T04:09:55.613Z,59.25
2022-09-03T04:10:55.580Z,59.15
2022-09-03T04:11:55.569Z,59.05
2022-09-03T04:12:55.560Z,58.95
2022-09-03T04:13:55.561Z,59.25
2022-09-03T04:14:55.583Z,58.95
2022-09-03T04:15:55.532Z,59.15
2022-09-03T04:16:55.526Z,59.05
2022-09-03T04:17:55.530Z,59.25
2022-09-03T04:18:55.482Z,59.15
2022-09-03T04:19:55.492Z,59.35
2022-09-03T04:20:55.468Z,59.35
2022-09-03T04:21:55.484Z,59.45
2022-09-03T04:22:55.430Z,59.45
2022-09-03T04:23:55.476Z,59.56
2022-09-03T04:24:55.419Z,59.35
2022-09-03T04:25:55.397Z,59.35
2022-09-03T04:26:55.393Z,59.56
2022-09-03T04:27:55.370Z,59.66
2022-09-03T04:28:55.358Z,59.76
2022-09-03T04:29:55.350Z,59.45
2022-09-03T04:30:55.363Z,59.45
2022-09-03T04:31:55.316Z,59.35
2022-09-03T04:32:55.335Z,59.45
2022-09-03T04:33:55.325Z,59.66
2022-09-03T04:34:55.303Z,59.66
2022-09-03T04:35:55.278Z,59.66
2022-09-03T04:36:55.240Z,59.96
2022-09-03T04:37:55.272Z,59.96
2022-09-03T04:38:55.245Z,59.96
2022-09-03T04:39:55.315Z,59.76
2022-09-03T04:40:55.187Z,59.66
2022-09-03T04:41:55.209Z,59.76
2022-09-03T04:42:55.158Z,59.96
2022-09-03T04:43:55.199Z,60.16
2022-09-03T04:44:55.145Z,60.06
2022-09-03T04:45:55.199Z,59.96
2022-09-03T04:46:55.117Z,59.76
2022-09-03T04:47:55.153Z,60.06
2022-09-03T04:48:55.112Z,59.05
2022-09-03T04:49:55.093Z,59.35
2022-09-03T04:50:55.153Z,59.25
2022-09-03T04:51:55.125Z,59.35
2022-09-03T04:52:55.048Z,59.25
2022-09-03T04:53:55.063Z,59.25
2022-09-03T04:54:55.071Z,59.45
2022-09-03T04:55:55.018Z,59.45
2022-09-03T04:56:55.009Z,59.86
2022-09-03T04:57:55.001Z,59.76
2022-09-03T04:58:54.977Z,59.76
2022-09-03T04:59:54.976Z,58.75
2022-09-03T05:00:55.014Z,59.05
2022-09-03T05:01:54.976Z,59.45
2022-09-03T05:02:54.930Z,59.25
2022-09-03T05:03:54.920Z,59.73
2022-09-03T05:04:54.899Z,59.45
2022-09-03T05:05:54.900Z,59.45
2022-09-03T05:06:54.879Z,59.76
2022-09-03T05:07:54.846Z,59.45
2022-09-03T05:08:54.897Z,59.56
2022-09-03T05:09:54.863Z,59.73
2022-09-03T05:10:55.163Z,59.22
2022-09-03T05:11:54.821Z,59.42
2022-09-03T05:12:54.816Z,59.56
2022-09-03T05:13:54.799Z,59.56
2022-09-03T05:14:54.776Z,59.12
2022-09-03T05:15:54.756Z,59.22
2022-09-03T05:16:54.768Z,59.25
2022-09-03T05:17:54.740Z,59.63
2022-09-03T05:18:54.724Z,59.83
2022-09-03T05:19:54.700Z,59.63
2022-09-03T05:20:54.685Z,59.63
2022-09-03T05:21:54.666Z,59.63
2022-09-03T05:22:54.665Z,59.63
2022-09-03T05:23:54.689Z,59.83
2022-09-03T05:24:54.625Z,60.24
2022-09-03T05:25:54.628Z,59.83
2022-09-03T05:26:54.632Z,59.83
2022-09-03T05:27:54.618Z,59.63
2022-09-03T05:28:54.595Z,59.83
2022-09-03T05:29:54.579Z,58.92
2022-09-03T05:30:54.585Z,59.73
2022-09-03T05:31:54.804Z,59.93
2022-09-03T05:32:54.544Z,59.93
2022-09-03T05:33:54.534Z,59.22
2022-09-03T05:34:54.520Z,58.72
2022-09-03T05:35:54.502Z,58.12
2022-09-03T05:36:54.500Z,58.72
2022-09-03T05:37:54.504Z,58.62
2022-09-03T05:38:54.475Z,59.20
2022-09-03T05:39:54.570Z,59.40
2022-09-03T05:40:54.426Z,57.89
2022-09-03T05:41:54.417Z,58.49
2022-09-03T05:42:54.415Z,58.69
2022-09-03T05:43:54.425Z,58.29
2022-09-03T05:44:54.387Z,59.30
2022-09-03T05:45:54.431Z,58.80
2022-09-03T05:46:54.354Z,58.39
2022-09-03T05:47:54.356Z,58.39
2022-09-03T05:48:54.351Z,57.58
2022-09-03T05:49:54.321Z,57.28
2022-09-03T05:50:54.317Z,57.15
2022-09-03T05:51:54.291Z,57.15
2022-09-03T05:52:54.294Z,57.25
2022-09-03T05:53:54.303Z,57.76
2022-09-03T05:54:54.267Z,57.76
2022-09-03T05:55:54.265Z,57.56
2022-09-03T05:56:54.231Z,57.35
2022-09-03T05:57:54.236Z,56.95
2022-09-03T05:58:54.262Z,56.45
2022-09-03T05:59:54.206Z,56.75
2022-09-03T06:00:54.173Z,57.25
2022-09-03T06:01:58.043Z,57.15
2022-09-03T06:02:55.486Z,57.45
2022-09-03T06:03:54.133Z,57.25
2022-09-03T06:04:54.146Z,56.95
2022-09-03T06:05:54.135Z,56.95
2022-09-03T06:06:54.109Z,57.35
2022-09-03T06:07:54.095Z,57.15
2022-09-03T06:08:54.091Z,57.56
2022-09-03T06:09:54.069Z,57.12
2022-09-03T06:10:54.039Z,57.03
2022-09-03T06:11:54.050Z,57.53
2022-09-03T06:12:54.024Z,56.52
2022-09-03T06:13:54.002Z,56.82
2022-09-03T06:14:53.982Z,56.62
2022-09-03T06:15:53.995Z,56.82
2022-09-03T06:16:54.005Z,56.82
2022-09-03T06:17:53.971Z,56.32
2022-09-03T06:18:53.968Z,55.91
2022-09-03T06:19:53.941Z,56.72
2022-09-03T06:20:53.922Z,57.10
2022-09-03T06:21:53.914Z,56.60
2022-09-03T06:22:53.921Z,56.29
2022-09-03T06:23:53.891Z,56.09
2022-09-03T06:24:53.871Z,56.49
2022-09-03T06:25:53.864Z,56.49
2022-09-03T06:26:53.862Z,55.99
2022-09-03T06:27:53.850Z,55.79
2022-09-03T06:28:53.831Z,55.69
2022-09-03T06:29:53.813Z,55.99
2022-09-03T06:30:53.802Z,55.59
2022-09-03T06:31:53.819Z,55.69
2022-09-03T06:32:53.825Z,56.27
2022-09-03T06:33:53.769Z,55.66
2022-09-03T06:34:53.750Z,55.96
2022-09-03T06:35:53.764Z,56.47
2022-09-03T06:36:54.610Z,55.87
2022-09-03T06:37:53.725Z,55.87
2022-09-03T06:38:53.733Z,55.76
2022-09-03T06:39:53.715Z,55.46
2022-09-03T06:40:53.673Z,55.16
2022-09-03T06:41:53.663Z,54.96
2022-09-03T06:42:53.652Z,55.56
2022-09-03T06:43:53.630Z,55.33
2022-09-03T06:44:53.633Z,55.54
2022-09-03T06:45:53.644Z,55.63
2022-09-03T06:46:53.598Z,55.43
2022-09-03T06:47:53.585Z,54.73
2022-09-03T06:48:53.593Z,55.03
2022-09-03T06:49:53.553Z,55.13
2022-09-03T06:50:53.547Z,55.13
2022-09-03T06:51:53.521Z,55.33
2022-09-03T06:52:53.530Z,55.43
2022-09-03T06:53:53.501Z,54.91
2022-09-03T06:54:53.563Z,55.21
2022-09-03T06:55:53.496Z,55.61
2022-09-03T06:56:53.460Z,54.40
2022-09-03T06:57:53.449Z,54.71
2022-09-03T06:58:53.439Z,54.60
2022-09-03T06:59:53.419Z,54.80
2022-09-03T07:00:53.517Z,55.11
2022-09-03T07:01:53.506Z,54.71
2022-09-03T07:02:53.407Z,54.80
2022-09-03T07:03:53.380Z,54.50
2022-09-03T07:04:53.348Z,54.91
2022-09-03T07:05:53.359Z,54.80
2022-09-03T07:06:53.343Z,54.71
2022-09-03T07:07:53.330Z,55.31
2022-09-03T07:08:53.329Z,54.60
2022-09-03T07:09:53.351Z,54.60
2022-09-03T07:10:53.290Z,55.31
2022-09-03T07:11:53.280Z,54.48
2022-09-03T07:12:53.377Z,54.28
2022-09-03T07:13:53.292Z,53.97
2022-09-03T07:14:53.250Z,54.28
2022-09-03T07:15:53.267Z,53.67
2022-09-03T07:16:53.226Z,53.88
2022-09-03T07:17:53.198Z,53.47
2022-09-03T07:18:53.201Z,54.08
2022-09-03T07:19:53.179Z,54.08
2022-09-03T07:21:51.058Z,53.47
2022-09-03T07:22:50.618Z,53.34
2022-09-03T07:23:52.327Z,53.75
2022-09-03T07:24:53.234Z,53.65
2022-09-03T07:25:50.559Z,53.75
2022-09-03T07:26:50.538Z,53.85
2022-09-03T07:27:50.524Z,53.92
2022-09-03T07:28:50.546Z,53.82
2022-09-03T07:29:50.511Z,53.92
2022-09-03T07:30:50.476Z,54.02
2022-09-03T07:31:50.543Z,53.72
2022-09-03T07:32:50.469Z,53.59
2022-09-03T07:33:50.475Z,53.39
2022-09-03T07:34:50.438Z,53.39
2022-09-03T07:35:50.431Z,53.59
2022-09-03T07:36:50.395Z,53.50
2022-09-03T07:37:50.420Z,52.59
2022-09-03T07:38:50.409Z,52.80
2022-09-03T07:39:50.445Z,52.19
2022-09-03T07:40:50.356Z,52.59
2022-09-03T07:41:50.382Z,52.49
2022-09-03T07:42:54.599Z,52.37
2022-09-03T07:43:50.337Z,53.17
2022-09-03T07:44:50.297Z,53.17
2022-09-03T07:45:50.308Z,52.47
2022-09-03T07:46:50.470Z,53.37
2022-09-03T07:47:50.258Z,53.27
2022-09-03T07:48:50.262Z,52.77
2022-09-03T07:49:50.237Z,52.97
2022-09-03T07:50:50.236Z,52.77
2022-09-03T07:51:50.228Z,53.14
2022-09-03T07:52:50.206Z,53.34
2022-09-03T07:53:50.210Z,53.25
2022-09-03T07:54:50.163Z,52.55
2022-09-03T07:55:50.178Z,52.14
2022-09-03T07:56:50.135Z,52.44
2022-09-03T07:57:50.146Z,52.44
2022-09-03T07:58:50.149Z,52.55
2022-09-03T07:59:50.118Z,51.94
2022-09-03T08:00:50.197Z,52.34
2022-09-03T08:01:50.086Z,52.24
2022-09-03T08:02:50.055Z,52.24
2022-09-03T08:03:50.104Z,52.55
2022-09-03T08:04:50.038Z,53.25
2022-09-03T08:05:50.024Z,53.45
2022-09-03T08:06:50.035Z,52.75
2022-09-03T08:07:50.002Z,52.84
2022-09-03T08:08:49.992Z,52.44
2022-09-03T08:09:49.995Z,52.84
2022-09-03T08:10:49.965Z,52.64
2022-09-03T08:11:49.975Z,53.02
2022-09-03T08:12:49.923Z,53.12
2022-09-03T08:13:49.938Z,53.52
2022-09-03T08:14:49.901Z,53.12
2022-09-03T08:15:49.944Z,52.82
2022-09-03T08:16:49.905Z,53.72
2022-09-03T08:17:49.877Z,53.62
2022-09-03T08:18:49.877Z,52.42
2022-09-03T08:19:49.836Z,52.92
2022-09-03T08:20:49.833Z,52.42
2022-09-03T08:21:49.821Z,52.69
2022-09-03T08:22:49.802Z,52.39
2022-09-03T08:23:49.803Z,53.39
2022-09-03T08:24:49.783Z,53.19
2022-09-03T08:25:49.771Z,52.09
2022-09-03T08:26:52.153Z,52.39
2022-09-03T08:27:49.746Z,52.67
2022-09-03T08:28:49.735Z,51.97
2022-09-03T08:29:51.474Z,52.87
2022-09-03T08:30:49.683Z,52.37
2022-09-03T08:31:49.918Z,52.67
2022-09-03T08:32:49.697Z,52.67
2022-09-03T08:33:49.665Z,51.97
2022-09-03T08:34:49.658Z,52.47
2022-09-03T08:35:49.666Z,52.57
2022-09-03T08:36:49.620Z,52.55
2022-09-03T08:37:51.773Z,52.44
2022-09-03T08:38:50.592Z,52.44
2022-09-03T08:39:49.665Z,52.04
2022-09-03T08:40:49.561Z,52.04
2022-09-03T08:41:49.587Z,50.92
2022-09-03T08:42:49.542Z,51.72
2022-09-03T08:43:49.533Z,51.12
2022-09-03T08:44:49.535Z,51.62
2022-09-03T08:45:49.544Z,51.72
2022-09-03T08:46:49.564Z,52.09
2022-09-03T08:47:49.515Z,51.39
2022-09-03T08:48:49.486Z,52.09
2022-09-03T08:49:49.464Z,52.29
2022-09-03T08:50:49.434Z,51.89
2022-09-03T08:51:49.425Z,52.02
2022-09-03T08:52:49.425Z,51.92
2022-09-03T08:53:49.413Z,52.32
2022-09-03T08:54:49.384Z,51.72
2022-09-03T08:55:49.384Z,51.12
2022-09-03T08:56:49.352Z,51.42
2022-09-03T08:57:49.353Z,52.02
2022-09-03T08:58:49.345Z,52.00
2022-09-03T08:59:49.344Z,51.52
2022-09-03T09:00:49.336Z,51.02
2022-09-03T09:01:49.441Z,51.02
2022-09-03T09:02:49.361Z,51.92
2022-09-03T09:03:49.295Z,51.34
2022-09-03T09:04:49.263Z,52.04
2022-09-03T09:05:49.283Z,51.94
2022-09-03T09:06:49.229Z,52.04
2022-09-03T09:07:49.226Z,52.94
2022-09-03T09:08:49.201Z,52.64
2022-09-03T09:09:49.208Z,52.84
2022-09-03T09:10:49.194Z,53.74
2022-09-03T09:11:49.216Z,53.37
2022-09-03T09:12:49.141Z,52.67
2022-09-03T09:13:49.155Z,53.37
2022-09-03T09:14:49.133Z,53.07
2022-09-03T09:15:49.145Z,53.37
2022-09-03T09:16:49.101Z,53.07
2022-09-03T09:17:49.103Z,53.37
2022-09-03T09:18:49.082Z,53.59
2022-09-03T09:19:49.070Z,54.17
2022-09-03T09:20:49.052Z,54.97
2022-09-03T09:21:49.041Z,54.97
2022-09-03T09:22:49.036Z,54.87
2022-09-03T09:23:49.041Z,54.87
2022-09-03T09:24:49.014Z,54.57
2022-09-03T09:25:48.994Z,54.37
2022-09-03T09:26:48.986Z,54.77
2022-09-03T09:27:48.950Z,54.47
2022-09-03T09:28:49.453Z,54.77
2022-09-03T09:29:48.960Z,55.07
2022-09-03T09:30:48.974Z,55.67
2022-09-03T09:31:48.914Z,56.37
2022-09-03T09:32:48.906Z,56.17
2022-09-03T09:33:48.889Z,55.57
2022-09-03T09:34:52.368Z,55.98
2022-09-03T09:35:48.879Z,56.37
2022-09-03T09:36:48.841Z,55.98
2022-09-03T09:37:48.821Z,56.87
2022-09-03T09:38:48.839Z,56.30
2022-09-03T09:39:48.904Z,56.80
2022-09-03T09:40:48.801Z,56.60
2022-09-03T09:41:48.810Z,57.00
2022-09-03T09:42:48.782Z,57.50
2022-09-03T09:43:48.773Z,57.40
2022-09-03T09:44:48.738Z,57.00
2022-09-03T09:45:48.743Z,57.10
2022-09-03T09:46:54.080Z,57.70
2022-09-03T09:47:49.729Z,58.11
2022-09-03T09:48:48.735Z,58.00
2022-09-03T09:49:48.693Z,57.40
2022-09-03T09:50:48.673Z,57.40
2022-09-03T09:51:48.659Z,57.30
2022-09-03T09:52:50.741Z,57.10
2022-09-03T09:53:48.638Z,56.80
2022-09-03T09:54:48.609Z,57.40
2022-09-03T09:55:48.618Z,56.80
2022-09-03T09:56:48.579Z,57.20
2022-09-03T09:57:48.570Z,57.70
2022-09-03T09:58:48.575Z,58.28
2022-09-03T09:59:48.585Z,57.57
2022-09-03T10:00:48.528Z,57.68
2022-09-03T10:01:48.567Z,57.68
2022-09-03T10:02:48.590Z,57.37
2022-09-03T10:03:48.513Z,57.48
2022-09-03T10:04:48.479Z,57.40
2022-09-03T10:05:48.489Z,58.11
2022-09-03T10:06:48.460Z,58.61
2022-09-03T10:07:48.492Z,58.91
2022-09-03T10:08:48.429Z,58.91
2022-09-03T10:09:48.424Z,58.91
2022-09-03T10:10:48.399Z,58.20
2022-09-03T10:11:48.431Z,58.61
2022-09-03T10:12:48.390Z,58.91
2022-09-03T10:13:48.392Z,58.70
2022-09-03T10:14:48.350Z,59.00
2022-09-03T10:15:48.402Z,59.11
2022-09-03T10:16:48.344Z,59.31
2022-09-03T10:17:48.335Z,60.31
2022-09-03T10:18:48.299Z,59.50
2022-09-03T10:19:48.302Z,60.71
2022-09-03T10:20:48.300Z,61.68
2022-09-03T10:21:48.281Z,59.98
2022-09-03T10:22:56.962Z,59.88
2022-09-03T10:23:49.272Z,60.61
2022-09-03T10:24:48.259Z,60.28
2022-09-03T10:25:48.230Z,59.98
2022-09-03T10:26:48.212Z,59.88
2022-09-03T10:27:48.211Z,60.48
2022-09-03T10:28:48.187Z,58.65
2022-09-03T10:29:48.208Z,58.75
2022-09-03T10:30:48.211Z,58.25
2022-09-03T10:31:48.135Z,57.85
2022-09-03T10:32:48.582Z,59.05
2022-09-03T10:33:48.119Z,57.65
2022-09-03T10:34:48.118Z,58.05
2022-09-03T10:35:48.125Z,59.95
2022-09-03T10:36:48.082Z,58.25
2022-09-03T10:37:48.078Z,58.05
2022-09-03T10:38:48.062Z,59.65
2022-09-03T10:39:52.173Z,59.65
2022-09-03T10:40:48.037Z,60.65
2022-09-03T10:41:48.031Z,60.75
2022-09-03T10:42:48.008Z,61.25
2022-09-03T10:43:47.977Z,59.82
2022-09-03T10:44:47.998Z,59.52
2022-09-03T10:45:50.738Z,59.32
2022-09-03T10:46:48.020Z,59.22
2022-09-03T10:47:47.981Z,59.12
2022-09-03T10:48:47.931Z,59.22
2022-09-03T10:49:48.863Z,59.02
2022-09-03T10:50:47.895Z,59.02
2022-09-03T10:51:49.691Z,59.52
2022-09-03T10:52:47.888Z,59.59
2022-09-03T10:53:47.939Z,59.39
2022-09-03T10:54:47.838Z,59.30
2022-09-03T10:55:47.838Z,59.30
2022-09-03T10:56:47.838Z,59.47
2022-09-03T10:57:47.818Z,60.27
2022-09-03T10:58:47.799Z,60.63
2022-09-03T10:59:47.849Z,59.14
2022-09-03T11:00:47.770Z,59.44
2022-09-03T11:01:47.853Z,59.01
2022-09-03T11:02:47.813Z,59.41
2022-09-03T11:03:47.745Z,59.31
2022-09-03T11:04:47.731Z,59.18
2022-09-03T11:05:47.744Z,59.38
2022-09-03T11:06:47.698Z,60.28
2022-09-03T11:07:47.674Z,60.35
2022-09-03T11:08:47.731Z,58.55
2022-09-03T11:09:47.646Z,57.03
2022-09-03T11:10:47.649Z,57.53
2022-09-03T11:11:47.661Z,56.33
2022-09-03T11:12:47.620Z,56.13
2022-09-03T11:13:47.647Z,56.23
2022-09-03T11:14:47.640Z,56.83
2022-09-03T11:15:47.645Z,56.53
2022-09-03T11:16:47.575Z,56.73
2022-09-03T11:17:47.578Z,55.63
2022-09-03T11:18:48.521Z,55.54
2022-09-03T11:19:47.540Z,55.73
2022-09-03T11:20:47.507Z,56.33
2022-09-03T11:21:47.487Z,56.23
2022-09-03T11:22:47.509Z,56.53
2022-09-03T11:23:47.510Z,56.83
2022-09-03T11:24:47.455Z,57.43
2022-09-03T11:25:47.456Z,56.73
2022-09-03T11:26:47.450Z,56.43
2022-09-03T11:27:47.437Z,56.23
2022-09-03T11:28:47.404Z,56.83
2022-09-03T11:29:47.415Z,57.82
2022-09-03T11:30:47.431Z,57.43
2022-09-03T11:31:47.366Z,57.23
2022-09-03T11:32:47.358Z,57.20
2022-09-03T11:33:47.368Z,57.50
2022-09-03T11:34:47.335Z,57.40
2022-09-03T11:35:47.358Z,56.90
2022-09-03T11:36:48.141Z,57.00
2022-09-03T11:37:47.330Z,56.98
2022-09-03T11:38:48.217Z,57.20
2022-09-03T11:39:47.298Z,57.30
2022-09-03T11:40:47.259Z,57.20
2022-09-03T11:41:47.287Z,57.30
2022-09-03T11:42:47.225Z,58.20
2022-09-03T11:43:47.195Z,58.50
2022-09-03T11:44:51.829Z,58.10
2022-09-03T11:45:47.271Z,57.70
2022-09-03T11:46:47.165Z,57.90
2022-09-03T11:47:47.274Z,57.20
2022-09-03T11:48:47.208Z,56.93
2022-09-03T11:49:47.128Z,57.23
2022-09-03T11:50:47.138Z,57.43
2022-09-03T11:51:47.111Z,57.70
2022-09-03T11:52:47.107Z,58.00
2022-09-03T11:53:47.115Z,56.90
2022-09-03T11:54:47.070Z,56.70
2022-09-03T11:55:47.107Z,57.10
2022-09-03T11:56:47.047Z,56.70
2022-09-03T11:57:47.038Z,56.70
2022-09-03T11:58:47.050Z,56.90
2022-09-03T11:59:47.046Z,57.00
2022-09-03T12:00:46.995Z,57.60
2022-09-03T12:01:46.984Z,57.17
2022-09-03T12:02:47.050Z,56.98
2022-09-03T12:03:46.945Z,56.77
2022-09-03T12:04:46.975Z,56.98
2022-09-03T12:05:47.256Z,56.57
2022-09-03T12:06:46.905Z,56.48
2022-09-03T12:07:46.896Z,56.87
2022-09-03T12:08:46.892Z,57.17
2022-09-03T12:09:46.855Z,57.47
2022-09-03T12:10:46.866Z,58.17
2022-09-03T12:11:46.853Z,57.37
2022-09-03T12:12:46.835Z,57.28
2022-09-03T12:13:46.824Z,57.67
2022-09-03T12:14:46.785Z,58.67
2022-09-03T12:15:46.831Z,58.37
2022-09-03T12:16:46.778Z,57.87
2022-09-03T12:17:46.845Z,57.57
2022-09-03T12:18:46.763Z,57.07
2022-09-03T12:19:46.737Z,57.37
2022-09-03T12:20:46.717Z,57.47
2022-09-03T12:21:46.704Z,57.47
2022-09-03T12:22:46.754Z,58.17
2022-09-03T12:23:47.437Z,59.17
2022-09-03T12:24:46.687Z,59.36
2022-09-03T12:25:46.644Z,59.74
2022-09-03T12:26:46.649Z,59.53
2022-09-03T12:27:46.627Z,59.04
2022-09-03T12:28:46.662Z,58.74
2022-09-03T12:29:46.606Z,58.84
2022-09-03T12:30:46.665Z,58.64
2022-09-03T12:31:46.564Z,58.64
2022-09-03T12:32:46.560Z,58.24
2022-09-03T12:33:47.297Z,58.44
2022-09-03T12:34:46.536Z,57.67
2022-09-03T12:36:01.897Z,57.77
2022-09-03T12:36:47.528Z,57.87
2022-09-03T12:39:10.506Z,58.47
2022-09-03T12:41:47.498Z,57.70
2022-09-03T12:42:46.467Z,57.80
2022-09-03T12:43:50.307Z,57.40
2022-09-03T12:44:46.414Z,57.40
2022-09-03T12:46:47.573Z,56.38
2022-09-03T12:47:46.412Z,57.17
2022-09-03T12:48:46.391Z,56.77
2022-09-03T12:49:46.337Z,56.77
2022-09-03T12:50:49.553Z,56.38
2022-09-03T12:51:49.957Z,55.35
2022-09-03T12:52:47.324Z,55.35
2022-09-03T12:53:46.307Z,54.96
2022-09-03T12:54:50.212Z,54.96
2022-09-03T12:55:46.284Z,55.16
2022-09-03T12:56:46.243Z,55.16
2022-09-03T12:57:46.242Z,55.35